sensor_id;sensor_type;location;lat;lon;timestamp;P1;durP1;ratioP1;P2;durP2;ratioP2
65234;SDS011;51820;48.374;10.930;2024-03-17T00:01:13;5.35;;;2.10;;
65234;SDS011;51820;48.374;10.930;2024-03-17T00:03:42;4.93;;;2.05;;
65234;SDS011;51820;48.374;10.930;2024-03-17T00:06:11;6.47;;;2.28;;
65234;SDS011;51820;48.374;10.930;2024-03-17T00:08:37;7.88;;;2.28;;
65234;SDS011;51820;48.374;10.930;2024-03-17T00:11:08;9.77;;;2.80;;
65234;SDS011;51820;48.374;10.930;2024-03-17T00:13:34;6.07;;;2.40;;
65234;SDS011;51820;48.374;10.930;2024-03-17T00:16:02;6.18;;;2.58;;
65234;SDS011;51820;48.374;10.930;2024-03-17T00:18:28;5.70;;;2.35;;
65234;SDS011;51820;48.374;10.930;2024-03-17T00:20:56;5.78;;;2.50;;
65234;SDS011;51820;48.374;10.930;2024-03-17T00:23:23;5.38;;;2.55;;
65234;SDS011;51820;48.374;10.930;2024-03-17T00:25:51;6.43;;;2.63;;
65234;SDS011;51820;48.374;10.930;2024-03-17T00:28:17;5.38;;;2.53;;
65234;SDS011;51820;48.374;10.930;2024-03-17T00:30:46;5.30;;;2.33;;
65234;SDS011;51820;48.374;10.930;2024-03-17T00:33:12;6.63;;;2.45;;
65234;SDS011;51820;48.374;10.930;2024-03-17T00:35:40;7.27;;;3.00;;
65234;SDS011;51820;48.374;10.930;2024-03-17T00:38:06;9.30;;;2.75;;
65234;SDS011;51820;48.374;10.930;2024-03-17T00:40:38;8.85;;;2.55;;
65234;SDS011;51820;48.374;10.930;2024-03-17T00:43:06;6.30;;;2.53;;
65234;SDS011;51820;48.374;10.930;2024-03-17T00:45:33;6.72;;;2.47;;
65234;SDS011;51820;48.374;10.930;2024-03-17T00:48:00;6.03;;;2.40;;
65234;SDS011;51820;48.374;10.930;2024-03-17T00:50:27;6.40;;;2.63;;
65234;SDS011;51820;48.374;10.930;2024-03-17T00:52:54;6.43;;;2.67;;
65234;SDS011;51820;48.374;10.930;2024-03-17T00:55:21;6.72;;;3.03;;
65234;SDS011;51820;48.374;10.930;2024-03-17T00:57:50;6.40;;;3.15;;
65234;SDS011;51820;48.374;10.930;2024-03-17T01:00:16;7.50;;;3.57;;
65234;SDS011;51820;48.374;10.930;2024-03-17T01:02:44;7.68;;;3.50;;
65234;SDS011;51820;48.374;10.930;2024-03-17T01:05:11;7.00;;;3.30;;
65234;SDS011;51820;48.374;10.930;2024-03-17T01:07:39;6.20;;;3.03;;
65234;SDS011;51820;48.374;10.930;2024-03-17T01:10:08;7.63;;;3.22;;
65234;SDS011;51820;48.374;10.930;2024-03-17T01:12:35;7.60;;;3.03;;
65234;SDS011;51820;48.374;10.930;2024-03-17T01:15:04;7.80;;;3.30;;
65234;SDS011;51820;48.374;10.930;2024-03-17T01:17:32;9.07;;;3.78;;
65234;SDS011;51820;48.374;10.930;2024-03-17T01:19:58;7.70;;;2.97;;
65234;SDS011;51820;48.374;10.930;2024-03-17T01:22:28;7.00;;;3.10;;
65234;SDS011;51820;48.374;10.930;2024-03-17T01:24:56;6.40;;;3.00;;
65234;SDS011;51820;48.374;10.930;2024-03-17T01:27:23;8.38;;;3.03;;
65234;SDS011;51820;48.374;10.930;2024-03-17T01:29:49;5.85;;;2.50;;
65234;SDS011;51820;48.374;10.930;2024-03-17T01:32:18;6.95;;;3.28;;
65234;SDS011;51820;48.374;10.930;2024-03-17T01:34:45;6.97;;;3.30;;
65234;SDS011;51820;48.374;10.930;2024-03-17T01:37:12;8.40;;;3.30;;
65234;SDS011;51820;48.374;10.930;2024-03-17T01:39:38;7.43;;;3.38;;
65234;SDS011;51820;48.374;10.930;2024-03-17T01:42:06;7.70;;;3.15;;
65234;SDS011;51820;48.374;10.930;2024-03-17T01:44:33;7.55;;;3.00;;
65234;SDS011;51820;48.374;10.930;2024-03-17T01:47:00;8.05;;;3.40;;
65234;SDS011;51820;48.374;10.930;2024-03-17T01:49:28;9.73;;;4.13;;
65234;SDS011;51820;48.374;10.930;2024-03-17T01:51:58;11.07;;;3.88;;
65234;SDS011;51820;48.374;10.930;2024-03-17T01:54:24;9.05;;;3.95;;
65234;SDS011;51820;48.374;10.930;2024-03-17T01:56:52;8.00;;;3.65;;
65234;SDS011;51820;48.374;10.930;2024-03-17T01:59:18;15.57;;;5.60;;
65234;SDS011;51820;48.374;10.930;2024-03-17T02:01:46;14.13;;;3.93;;
65234;SDS011;51820;48.374;10.930;2024-03-17T02:04:12;10.05;;;3.97;;
65234;SDS011;51820;48.374;10.930;2024-03-17T02:06:41;9.35;;;3.30;;
65234;SDS011;51820;48.374;10.930;2024-03-17T02:09:10;7.28;;;3.20;;
65234;SDS011;51820;48.374;10.930;2024-03-17T02:11:38;7.80;;;3.70;;
65234;SDS011;51820;48.374;10.930;2024-03-17T02:14:04;5.97;;;2.80;;
65234;SDS011;51820;48.374;10.930;2024-03-17T02:16:33;6.60;;;3.35;;
65234;SDS011;51820;48.374;10.930;2024-03-17T02:18:59;9.13;;;3.40;;
65234;SDS011;51820;48.374;10.930;2024-03-17T02:21:27;9.82;;;3.20;;
65234;SDS011;51820;48.374;10.930;2024-03-17T02:23:55;7.50;;;2.90;;
65234;SDS011;51820;48.374;10.930;2024-03-17T02:26:24;5.57;;;2.65;;
65234;SDS011;51820;48.374;10.930;2024-03-17T02:28:51;8.68;;;3.20;;
65234;SDS011;51820;48.374;10.930;2024-03-17T02:31:18;5.97;;;2.83;;
65234;SDS011;51820;48.374;10.930;2024-03-17T02:33:45;7.97;;;3.00;;
65234;SDS011;51820;48.374;10.930;2024-03-17T02:36:13;7.40;;;2.72;;
65234;SDS011;51820;48.374;10.930;2024-03-17T02:38:42;9.27;;;2.80;;
65234;SDS011;51820;48.374;10.930;2024-03-17T02:41:29;8.25;;;2.80;;
65234;SDS011;51820;48.374;10.930;2024-03-17T02:43:56;10.40;;;3.40;;
65234;SDS011;51820;48.374;10.930;2024-03-17T02:46:24;6.70;;;3.20;;
65234;SDS011;51820;48.374;10.930;2024-03-17T02:48:51;7.97;;;3.35;;
65234;SDS011;51820;48.374;10.930;2024-03-17T02:51:20;8.80;;;3.60;;
65234;SDS011;51820;48.374;10.930;2024-03-17T02:53:49;10.60;;;4.78;;
65234;SDS011;51820;48.374;10.930;2024-03-17T02:56:17;12.10;;;4.47;;
65234;SDS011;51820;48.374;10.930;2024-03-17T02:58:46;13.32;;;4.43;;
65234;SDS011;51820;48.374;10.930;2024-03-17T03:01:14;11.20;;;3.70;;
65234;SDS011;51820;48.374;10.930;2024-03-17T03:03:42;9.43;;;3.45;;
65234;SDS011;51820;48.374;10.930;2024-03-17T03:06:10;7.85;;;3.17;;
65234;SDS011;51820;48.374;10.930;2024-03-17T03:08:38;7.25;;;3.50;;
65234;SDS011;51820;48.374;10.930;2024-03-17T03:11:06;6.82;;;3.15;;
65234;SDS011;51820;48.374;10.930;2024-03-17T03:13:36;7.60;;;3.35;;
65234;SDS011;51820;48.374;10.930;2024-03-17T03:16:06;7.10;;;3.42;;
65234;SDS011;51820;48.374;10.930;2024-03-17T03:18:34;8.48;;;3.83;;
65234;SDS011;51820;48.374;10.930;2024-03-17T03:21:02;8.82;;;3.88;;
65234;SDS011;51820;48.374;10.930;2024-03-17T03:23:29;8.30;;;3.42;;
65234;SDS011;51820;48.374;10.930;2024-03-17T03:25:58;8.55;;;3.35;;
65234;SDS011;51820;48.374;10.930;2024-03-17T03:28:26;10.23;;;3.60;;
65234;SDS011;51820;48.374;10.930;2024-03-17T03:30:54;7.40;;;3.40;;
65234;SDS011;51820;48.374;10.930;2024-03-17T03:33:22;7.40;;;3.25;;
65234;SDS011;51820;48.374;10.930;2024-03-17T03:35:50;9.05;;;3.90;;
65234;SDS011;51820;48.374;10.930;2024-03-17T03:38:17;6.65;;;3.75;;
65234;SDS011;51820;48.374;10.930;2024-03-17T03:40:45;6.97;;;3.30;;
65234;SDS011;51820;48.374;10.930;2024-03-17T03:43:13;8.02;;;3.60;;
65234;SDS011;51820;48.374;10.930;2024-03-17T03:45:41;9.27;;;3.70;;
65234;SDS011;51820;48.374;10.930;2024-03-17T03:48:08;8.70;;;3.25;;
65234;SDS011;51820;48.374;10.930;2024-03-17T03:50:38;8.38;;;3.20;;
65234;SDS011;51820;48.374;10.930;2024-03-17T03:53:05;6.88;;;3.38;;
65234;SDS011;51820;48.374;10.930;2024-03-17T03:55:32;10.23;;;3.80;;
65234;SDS011;51820;48.374;10.930;2024-03-17T03:58:00;8.23;;;3.97;;
65234;SDS011;51820;48.374;10.930;2024-03-17T04:00:29;7.47;;;3.35;;
65234;SDS011;51820;48.374;10.930;2024-03-17T04:02:58;8.35;;;3.75;;
65234;SDS011;51820;48.374;10.930;2024-03-17T04:05:25;8.00;;;3.55;;
65234;SDS011;51820;48.374;10.930;2024-03-17T04:07:55;8.02;;;3.83;;
65234;SDS011;51820;48.374;10.930;2024-03-17T04:10:22;9.02;;;3.92;;
65234;SDS011;51820;48.374;10.930;2024-03-17T04:12:50;8.25;;;4.10;;
65234;SDS011;51820;48.374;10.930;2024-03-17T04:15:18;8.85;;;4.10;;
65234;SDS011;51820;48.374;10.930;2024-03-17T04:17:45;9.15;;;4.05;;
65234;SDS011;51820;48.374;10.930;2024-03-17T04:20:13;9.02;;;4.25;;
65234;SDS011;51820;48.374;10.930;2024-03-17T04:22:41;10.35;;;4.28;;
65234;SDS011;51820;48.374;10.930;2024-03-17T04:25:12;8.20;;;4.00;;
65234;SDS011;51820;48.374;10.930;2024-03-17T04:27:39;8.18;;;4.05;;
65234;SDS011;51820;48.374;10.930;2024-03-17T04:30:07;7.90;;;3.85;;
65234;SDS011;51820;48.374;10.930;2024-03-17T04:32:37;10.13;;;4.50;;
65234;SDS011;51820;48.374;10.930;2024-03-17T04:35:06;9.55;;;4.00;;
65234;SDS011;51820;48.374;10.930;2024-03-17T04:37:33;9.30;;;4.47;;
65234;SDS011;51820;48.374;10.930;2024-03-17T04:40:05;10.25;;;4.75;;
65234;SDS011;51820;48.374;10.930;2024-03-17T04:42:36;11.02;;;5.15;;
65234;SDS011;51820;48.374;10.930;2024-03-17T04:45:05;10.02;;;4.40;;
65234;SDS011;51820;48.374;10.930;2024-03-17T04:47:35;9.18;;;4.70;;
65234;SDS011;51820;48.374;10.930;2024-03-17T04:50:03;9.77;;;4.65;;
65234;SDS011;51820;48.374;10.930;2024-03-17T04:52:31;9.38;;;4.75;;
65234;SDS011;51820;48.374;10.930;2024-03-17T04:54:58;11.20;;;4.55;;
65234;SDS011;51820;48.374;10.930;2024-03-17T04:57:26;9.85;;;4.95;;
65234;SDS011;51820;48.374;10.930;2024-03-17T04:59:55;9.77;;;4.82;;
65234;SDS011;51820;48.374;10.930;2024-03-17T05:02:22;9.82;;;4.20;;
65234;SDS011;51820;48.374;10.930;2024-03-17T05:04:50;7.75;;;4.05;;
65234;SDS011;51820;48.374;10.930;2024-03-17T05:07:18;9.52;;;4.47;;
65234;SDS011;51820;48.374;10.930;2024-03-17T05:09:46;10.32;;;4.22;;
65234;SDS011;51820;48.374;10.930;2024-03-17T05:12:15;9.02;;;4.63;;
65234;SDS011;51820;48.374;10.930;2024-03-17T05:14:43;8.90;;;4.30;;
65234;SDS011;51820;48.374;10.930;2024-03-17T05:17:11;9.63;;;4.47;;
65234;SDS011;51820;48.374;10.930;2024-03-17T05:19:39;11.05;;;4.47;;
65234;SDS011;51820;48.374;10.930;2024-03-17T05:22:07;11.07;;;4.18;;
65234;SDS011;51820;48.374;10.930;2024-03-17T05:24:35;9.35;;;4.40;;
65234;SDS011;51820;48.374;10.930;2024-03-17T05:27:03;9.38;;;4.55;;
65234;SDS011;51820;48.374;10.930;2024-03-17T05:29:31;8.27;;;4.18;;
65234;SDS011;51820;48.374;10.930;2024-03-17T05:32:01;9.40;;;4.67;;
65234;SDS011;51820;48.374;10.930;2024-03-17T05:34:31;8.38;;;4.43;;
65234;SDS011;51820;48.374;10.930;2024-03-17T05:36:59;9.10;;;4.20;;
65234;SDS011;51820;48.374;10.930;2024-03-17T05:39:27;8.48;;;4.20;;
65234;SDS011;51820;48.374;10.930;2024-03-17T05:41:54;9.10;;;4.50;;
65234;SDS011;51820;48.374;10.930;2024-03-17T05:44:22;8.82;;;4.30;;
65234;SDS011;51820;48.374;10.930;2024-03-17T05:46:49;7.60;;;3.88;;
65234;SDS011;51820;48.374;10.930;2024-03-17T05:49:19;10.43;;;4.40;;
65234;SDS011;51820;48.374;10.930;2024-03-17T05:51:48;9.95;;;4.22;;
65234;SDS011;51820;48.374;10.930;2024-03-17T05:54:16;8.18;;;4.30;;
65234;SDS011;51820;48.374;10.930;2024-03-17T05:56:43;10.97;;;5.00;;
65234;SDS011;51820;48.374;10.930;2024-03-17T05:59:11;9.75;;;4.45;;
65234;SDS011;51820;48.374;10.930;2024-03-17T06:01:38;9.55;;;4.28;;
65234;SDS011;51820;48.374;10.930;2024-03-17T06:04:06;9.60;;;4.32;;
65234;SDS011;51820;48.374;10.930;2024-03-17T06:06:34;9.38;;;4.30;;
65234;SDS011;51820;48.374;10.930;2024-03-17T06:09:03;9.23;;;4.43;;
65234;SDS011;51820;48.374;10.930;2024-03-17T06:11:34;8.60;;;4.45;;
65234;SDS011;51820;48.374;10.930;2024-03-17T06:14:01;12.00;;;4.85;;
65234;SDS011;51820;48.374;10.930;2024-03-17T06:16:31;7.97;;;4.40;;
65234;SDS011;51820;48.374;10.930;2024-03-17T06:18:59;8.77;;;4.80;;
65234;SDS011;51820;48.374;10.930;2024-03-17T06:21:26;9.98;;;4.32;;
65234;SDS011;51820;48.374;10.930;2024-03-17T06:23:54;9.02;;;3.92;;
65234;SDS011;51820;48.374;10.930;2024-03-17T06:26:23;7.85;;;4.22;;
65234;SDS011;51820;48.374;10.930;2024-03-17T06:28:52;9.57;;;4.78;;
65234;SDS011;51820;48.374;10.930;2024-03-17T06:31:20;8.70;;;4.30;;
65234;SDS011;51820;48.374;10.930;2024-03-17T06:33:47;9.85;;;4.57;;
65234;SDS011;51820;48.374;10.930;2024-03-17T06:36:15;10.73;;;4.80;;
65234;SDS011;51820;48.374;10.930;2024-03-17T06:38:43;10.43;;;4.90;;
65234;SDS011;51820;48.374;10.930;2024-03-17T06:41:10;16.05;;;6.15;;
65234;SDS011;51820;48.374;10.930;2024-03-17T06:43:41;21.55;;;8.50;;
65234;SDS011;51820;48.374;10.930;2024-03-17T06:46:10;14.30;;;7.47;;
65234;SDS011;51820;48.374;10.930;2024-03-17T06:48:37;13.88;;;6.47;;
65234;SDS011;51820;48.374;10.930;2024-03-17T06:51:05;12.38;;;6.03;;
65234;SDS011;51820;48.374;10.930;2024-03-17T06:53:32;12.43;;;5.57;;
65234;SDS011;51820;48.374;10.930;2024-03-17T06:56:00;11.25;;;5.28;;
65234;SDS011;51820;48.374;10.930;2024-03-17T06:58:27;11.70;;;4.53;;
65234;SDS011;51820;48.374;10.930;2024-03-17T07:00:57;10.18;;;4.97;;
65234;SDS011;51820;48.374;10.930;2024-03-17T07:03:24;9.05;;;5.05;;
65234;SDS011;51820;48.374;10.930;2024-03-17T07:05:52;10.90;;;4.88;;
65234;SDS011;51820;48.374;10.930;2024-03-17T07:08:21;10.93;;;4.57;;
65234;SDS011;51820;48.374;10.930;2024-03-17T07:10:55;9.60;;;4.60;;
65234;SDS011;51820;48.374;10.930;2024-03-17T07:13:23;11.25;;;4.60;;
65234;SDS011;51820;48.374;10.930;2024-03-17T07:15:51;10.57;;;4.47;;
65234;SDS011;51820;48.374;10.930;2024-03-17T07:18:20;10.73;;;4.53;;
65234;SDS011;51820;48.374;10.930;2024-03-17T07:20:47;10.20;;;4.35;;
65234;SDS011;51820;48.374;10.930;2024-03-17T07:23:15;9.00;;;4.47;;
65234;SDS011;51820;48.374;10.930;2024-03-17T07:25:43;8.48;;;4.28;;
65234;SDS011;51820;48.374;10.930;2024-03-17T07:28:18;10.45;;;4.50;;
65234;SDS011;51820;48.374;10.930;2024-03-17T07:30:46;9.52;;;4.20;;
65234;SDS011;51820;48.374;10.930;2024-03-17T07:33:14;8.98;;;4.47;;
65234;SDS011;51820;48.374;10.930;2024-03-17T07:35:50;9.50;;;4.43;;
65234;SDS011;51820;48.374;10.930;2024-03-17T07:38:19;11.25;;;4.32;;
65234;SDS011;51820;48.374;10.930;2024-03-17T07:40:54;10.23;;;4.10;;
65234;SDS011;51820;48.374;10.930;2024-03-17T07:43:23;8.82;;;4.43;;
65234;SDS011;51820;48.374;10.930;2024-03-17T07:45:58;8.82;;;4.28;;
65234;SDS011;51820;48.374;10.930;2024-03-17T07:48:26;9.50;;;4.50;;
65234;SDS011;51820;48.374;10.930;2024-03-17T07:50:56;8.65;;;4.63;;
65234;SDS011;51820;48.374;10.930;2024-03-17T07:53:23;8.93;;;3.83;;
65234;SDS011;51820;48.374;10.930;2024-03-17T07:55:58;10.68;;;4.53;;
65234;SDS011;51820;48.374;10.930;2024-03-17T07:58:27;8.88;;;4.03;;
65234;SDS011;51820;48.374;10.930;2024-03-17T08:00:57;8.40;;;4.07;;
65234;SDS011;51820;48.374;10.930;2024-03-17T08:03:26;10.65;;;4.53;;
65234;SDS011;51820;48.374;10.930;2024-03-17T08:05:55;9.05;;;4.60;;
65234;SDS011;51820;48.374;10.930;2024-03-17T08:08:22;8.63;;;4.10;;
65234;SDS011;51820;48.374;10.930;2024-03-17T08:10:50;9.15;;;4.10;;
65234;SDS011;51820;48.374;10.930;2024-03-17T08:13:18;7.07;;;3.63;;
65234;SDS011;51820;48.374;10.930;2024-03-17T08:15:45;9.32;;;3.80;;
65234;SDS011;51820;48.374;10.930;2024-03-17T08:18:21;10.85;;;4.00;;
65234;SDS011;51820;48.374;10.930;2024-03-17T08:20:48;7.50;;;3.40;;
65234;SDS011;51820;48.374;10.930;2024-03-17T08:23:17;9.80;;;4.10;;
65234;SDS011;51820;48.374;10.930;2024-03-17T08:25:51;9.07;;;4.13;;
65234;SDS011;51820;48.374;10.930;2024-03-17T08:28:19;8.15;;;3.92;;
65234;SDS011;51820;48.374;10.930;2024-03-17T08:30:50;8.93;;;4.20;;
65234;SDS011;51820;48.374;10.930;2024-03-17T08:33:18;8.23;;;3.95;;
65234;SDS011;51820;48.374;10.930;2024-03-17T08:35:53;11.65;;;5.32;;
65234;SDS011;51820;48.374;10.930;2024-03-17T08:38:22;11.80;;;5.03;;
65234;SDS011;51820;48.374;10.930;2024-03-17T08:40:50;9.27;;;4.30;;
65234;SDS011;51820;48.374;10.930;2024-03-17T08:43:17;8.93;;;4.22;;
65234;SDS011;51820;48.374;10.930;2024-03-17T08:45:45;7.05;;;3.90;;
65234;SDS011;51820;48.374;10.930;2024-03-17T08:48:12;10.70;;;4.85;;
65234;SDS011;51820;48.374;10.930;2024-03-17T08:50:40;11.33;;;4.10;;
65234;SDS011;51820;48.374;10.930;2024-03-17T08:53:08;9.07;;;3.90;;
65234;SDS011;51820;48.374;10.930;2024-03-17T08:55:38;8.18;;;4.00;;
65234;SDS011;51820;48.374;10.930;2024-03-17T08:58:05;9.40;;;4.00;;
65234;SDS011;51820;48.374;10.930;2024-03-17T09:00:33;9.63;;;4.30;;
65234;SDS011;51820;48.374;10.930;2024-03-17T09:03:02;8.23;;;4.20;;
65234;SDS011;51820;48.374;10.930;2024-03-17T09:05:29;7.82;;;4.20;;
65234;SDS011;51820;48.374;10.930;2024-03-17T09:07:59;7.43;;;3.85;;
65234;SDS011;51820;48.374;10.930;2024-03-17T09:10:26;8.88;;;4.10;;
65234;SDS011;51820;48.374;10.930;2024-03-17T09:12:55;9.75;;;5.00;;
65234;SDS011;51820;48.374;10.930;2024-03-17T09:15:25;11.37;;;3.90;;
65234;SDS011;51820;48.374;10.930;2024-03-17T09:17:53;9.25;;;3.80;;
65234;SDS011;51820;48.374;10.930;2024-03-17T09:20:20;7.05;;;3.50;;
65234;SDS011;51820;48.374;10.930;2024-03-17T09:22:48;8.75;;;3.53;;
65234;SDS011;51820;48.374;10.930;2024-03-17T09:25:15;8.65;;;3.60;;
65234;SDS011;51820;48.374;10.930;2024-03-17T09:27:43;7.53;;;3.80;;
65234;SDS011;51820;48.374;10.930;2024-03-17T09:30:13;6.70;;;3.20;;
65234;SDS011;51820;48.374;10.930;2024-03-17T09:32:49;8.32;;;4.20;;
65234;SDS011;51820;48.374;10.930;2024-03-17T09:35:17;10.20;;;3.92;;
65234;SDS011;51820;48.374;10.930;2024-03-17T09:37:44;7.10;;;3.50;;
65234;SDS011;51820;48.374;10.930;2024-03-17T09:40:13;6.20;;;3.10;;
65234;SDS011;51820;48.374;10.930;2024-03-17T09:42:41;7.22;;;3.30;;
65234;SDS011;51820;48.374;10.930;2024-03-17T09:45:10;7.13;;;2.60;;
65234;SDS011;51820;48.374;10.930;2024-03-17T09:47:38;6.88;;;3.03;;
65234;SDS011;51820;48.374;10.930;2024-03-17T09:50:12;7.30;;;3.08;;
65234;SDS011;51820;48.374;10.930;2024-03-17T09:52:42;6.37;;;2.93;;
65234;SDS011;51820;48.374;10.930;2024-03-17T09:55:14;5.97;;;2.80;;
65234;SDS011;51820;48.374;10.930;2024-03-17T09:57:43;6.72;;;3.20;;
65234;SDS011;51820;48.374;10.930;2024-03-17T10:00:13;6.97;;;3.20;;
65234;SDS011;51820;48.374;10.930;2024-03-17T10:02:43;8.60;;;2.97;;
65234;SDS011;51820;48.374;10.930;2024-03-17T10:05:21;7.40;;;2.97;;
65234;SDS011;51820;48.374;10.930;2024-03-17T10:07:58;7.00;;;2.90;;
65234;SDS011;51820;48.374;10.930;2024-03-17T10:10:27;6.72;;;3.15;;
65234;SDS011;51820;48.374;10.930;2024-03-17T10:12:55;6.15;;;3.03;;
65234;SDS011;51820;48.374;10.930;2024-03-17T10:15:23;6.00;;;2.80;;
65234;SDS011;51820;48.374;10.930;2024-03-17T10:17:52;7.40;;;2.77;;
65234;SDS011;51820;48.374;10.930;2024-03-17T10:20:23;5.70;;;2.58;;
65234;SDS011;51820;48.374;10.930;2024-03-17T10:22:58;7.03;;;2.88;;
65234;SDS011;51820;48.374;10.930;2024-03-17T10:25:26;6.13;;;2.70;;
65234;SDS011;51820;48.374;10.930;2024-03-17T10:27:54;5.55;;;2.85;;
65234;SDS011;51820;48.374;10.930;2024-03-17T10:30:22;6.27;;;2.63;;
65234;SDS011;51820;48.374;10.930;2024-03-17T10:32:57;7.90;;;2.92;;
65234;SDS011;51820;48.374;10.930;2024-03-17T10:35:29;5.63;;;2.40;;
65234;SDS011;51820;48.374;10.930;2024-03-17T10:37:59;5.60;;;2.55;;
65234;SDS011;51820;48.374;10.930;2024-03-17T10:40:27;8.05;;;2.72;;
65234;SDS011;51820;48.374;10.930;2024-03-17T10:42:56;6.37;;;2.20;;
65234;SDS011;51820;48.374;10.930;2024-03-17T10:45:24;5.28;;;2.38;;
65234;SDS011;51820;48.374;10.930;2024-03-17T10:47:52;6.03;;;2.10;;
65234;SDS011;51820;48.374;10.930;2024-03-17T10:50:21;5.60;;;2.42;;
65234;SDS011;51820;48.374;10.930;2024-03-17T10:52:50;4.90;;;2.00;;
65234;SDS011;51820;48.374;10.930;2024-03-17T10:55:20;6.03;;;2.40;;
65234;SDS011;51820;48.374;10.930;2024-03-17T10:57:50;4.53;;;1.88;;
65234;SDS011;51820;48.374;10.930;2024-03-17T11:00:19;6.55;;;2.50;;
65234;SDS011;51820;48.374;10.930;2024-03-17T11:02:49;5.15;;;2.15;;
65234;SDS011;51820;48.374;10.930;2024-03-17T11:05:18;6.97;;;2.63;;
65234;SDS011;51820;48.374;10.930;2024-03-17T11:07:52;5.30;;;2.03;;
65234;SDS011;51820;48.374;10.930;2024-03-17T11:10:21;6.45;;;2.50;;
65234;SDS011;51820;48.374;10.930;2024-03-17T11:12:50;9.55;;;2.60;;
65234;SDS011;51820;48.374;10.930;2024-03-17T11:15:34;8.82;;;2.92;;
65234;SDS011;51820;48.374;10.930;2024-03-17T11:18:27;7.88;;;2.60;;
65234;SDS011;51820;48.374;10.930;2024-03-17T11:21:18;6.07;;;2.33;;
65234;SDS011;51820;48.374;10.930;2024-03-17T11:23:59;7.78;;;2.50;;
65234;SDS011;51820;48.374;10.930;2024-03-17T11:26:29;6.18;;;2.22;;
65234;SDS011;51820;48.374;10.930;2024-03-17T11:29:00;6.60;;;2.10;;
65234;SDS011;51820;48.374;10.930;2024-03-17T11:34:33;5.97;;;2.83;;
65234;SDS011;51820;48.374;10.930;2024-03-17T11:37:02;5.95;;;2.22;;
65234;SDS011;51820;48.374;10.930;2024-03-17T11:39:47;5.78;;;2.30;;
65234;SDS011;51820;48.374;10.930;2024-03-17T11:42:24;6.63;;;2.83;;
65234;SDS011;51820;48.374;10.930;2024-03-17T11:44:56;6.03;;;3.03;;
65234;SDS011;51820;48.374;10.930;2024-03-17T11:47:33;7.20;;;2.90;;
65234;SDS011;51820;48.374;10.930;2024-03-17T11:50:03;6.68;;;2.70;;
65234;SDS011;51820;48.374;10.930;2024-03-17T11:52:30;5.50;;;2.70;;
65234;SDS011;51820;48.374;10.930;2024-03-17T11:54:59;5.63;;;2.42;;
65234;SDS011;51820;48.374;10.930;2024-03-17T11:57:26;6.72;;;2.28;;
65234;SDS011;51820;48.374;10.930;2024-03-17T11:59:54;5.97;;;2.10;;
65234;SDS011;51820;48.374;10.930;2024-03-17T12:02:22;5.55;;;1.90;;
65234;SDS011;51820;48.374;10.930;2024-03-17T12:04:52;6.78;;;1.42;;
65234;SDS011;51820;48.374;10.930;2024-03-17T12:07:19;6.63;;;1.63;;
65234;SDS011;51820;48.374;10.930;2024-03-17T12:09:49;9.77;;;2.03;;
65234;SDS011;51820;48.374;10.930;2024-03-17T12:12:18;6.67;;;1.90;;
65234;SDS011;51820;48.374;10.930;2024-03-17T12:14:46;6.07;;;2.20;;
65234;SDS011;51820;48.374;10.930;2024-03-17T12:17:14;6.28;;;1.52;;
65234;SDS011;51820;48.374;10.930;2024-03-17T12:19:46;6.22;;;1.67;;
65234;SDS011;51820;48.374;10.930;2024-03-17T12:22:15;5.65;;;1.50;;
65234;SDS011;51820;48.374;10.930;2024-03-17T12:24:47;4.80;;;1.47;;
65234;SDS011;51820;48.374;10.930;2024-03-17T12:27:16;7.65;;;1.70;;
65234;SDS011;51820;48.374;10.930;2024-03-17T12:29:46;4.50;;;1.73;;
65234;SDS011;51820;48.374;10.930;2024-03-17T12:32:14;5.05;;;1.90;;
65234;SDS011;51820;48.374;10.930;2024-03-17T12:34:42;5.10;;;1.80;;
65234;SDS011;51820;48.374;10.930;2024-03-17T12:37:12;6.03;;;1.63;;
65234;SDS011;51820;48.374;10.930;2024-03-17T12:39:44;6.65;;;1.80;;
65234;SDS011;51820;48.374;10.930;2024-03-17T12:42:12;6.38;;;1.88;;
65234;SDS011;51820;48.374;10.930;2024-03-17T12:44:48;4.35;;;1.50;;
65234;SDS011;51820;48.374;10.930;2024-03-17T12:47:16;5.63;;;1.83;;
65234;SDS011;51820;48.374;10.930;2024-03-17T12:49:44;5.17;;;1.80;;
65234;SDS011;51820;48.374;10.930;2024-03-17T12:52:16;5.13;;;1.60;;
65234;SDS011;51820;48.374;10.930;2024-03-17T12:54:45;5.18;;;1.20;;
65234;SDS011;51820;48.374;10.930;2024-03-17T12:57:31;6.38;;;1.50;;
65234;SDS011;51820;48.374;10.930;2024-03-17T13:00:18;7.32;;;1.83;;
65234;SDS011;51820;48.374;10.930;2024-03-17T13:02:59;5.90;;;1.33;;
65234;SDS011;51820;48.374;10.930;2024-03-17T13:05:27;6.10;;;1.48;;
65234;SDS011;51820;48.374;10.930;2024-03-17T13:07:54;6.97;;;1.70;;
65234;SDS011;51820;48.374;10.930;2024-03-17T13:10:23;7.68;;;1.65;;
65234;SDS011;51820;48.374;10.930;2024-03-17T13:12:58;6.53;;;2.38;;
65234;SDS011;51820;48.374;10.930;2024-03-17T13:15:31;6.93;;;1.90;;
65234;SDS011;51820;48.374;10.930;2024-03-17T13:18:00;6.70;;;2.08;;
65234;SDS011;51820;48.374;10.930;2024-03-17T13:20:29;5.40;;;1.40;;
65234;SDS011;51820;48.374;10.930;2024-03-17T13:22:57;7.68;;;1.52;;
65234;SDS011;51820;48.374;10.930;2024-03-17T13:25:26;6.25;;;1.60;;
65234;SDS011;51820;48.374;10.930;2024-03-17T13:27:58;7.57;;;1.60;;
65234;SDS011;51820;48.374;10.930;2024-03-17T13:30:26;5.07;;;1.40;;
65234;SDS011;51820;48.374;10.930;2024-03-17T13:32:55;6.97;;;1.73;;
65234;SDS011;51820;48.374;10.930;2024-03-17T13:35:24;7.20;;;1.70;;
65234;SDS011;51820;48.374;10.930;2024-03-17T13:37:52;5.80;;;1.50;;
65234;SDS011;51820;48.374;10.930;2024-03-17T13:40:21;6.83;;;1.60;;
65234;SDS011;51820;48.374;10.930;2024-03-17T13:42:49;6.35;;;1.60;;
65234;SDS011;51820;48.374;10.930;2024-03-17T13:45:18;8.18;;;1.40;;
65234;SDS011;51820;48.374;10.930;2024-03-17T13:47:47;7.25;;;1.70;;
65234;SDS011;51820;48.374;10.930;2024-03-17T13:50:17;7.18;;;2.42;;
65234;SDS011;51820;48.374;10.930;2024-03-17T13:52:45;7.33;;;1.50;;
65234;SDS011;51820;48.374;10.930;2024-03-17T13:55:14;4.47;;;1.25;;
65234;SDS011;51820;48.374;10.930;2024-03-17T13:57:43;5.38;;;1.42;;
65234;SDS011;51820;48.374;10.930;2024-03-17T14:00:11;6.40;;;1.35;;
65234;SDS011;51820;48.374;10.930;2024-03-17T14:02:41;8.40;;;1.58;;
65234;SDS011;51820;48.374;10.930;2024-03-17T14:05:10;5.07;;;1.57;;
65234;SDS011;51820;48.374;10.930;2024-03-17T14:07:41;6.95;;;1.65;;
65234;SDS011;51820;48.374;10.930;2024-03-17T14:10:09;5.85;;;1.52;;
65234;SDS011;51820;48.374;10.930;2024-03-17T14:12:37;8.35;;;1.38;;
65234;SDS011;51820;48.374;10.930;2024-03-17T14:15:06;8.10;;;2.20;;
65234;SDS011;51820;48.374;10.930;2024-03-17T14:17:36;7.50;;;1.80;;
65234;SDS011;51820;48.374;10.930;2024-03-17T14:20:04;5.47;;;1.67;;
65234;SDS011;51820;48.374;10.930;2024-03-17T14:22:35;5.30;;;1.50;;
65234;SDS011;51820;48.374;10.930;2024-03-17T14:25:05;5.63;;;1.30;;
65234;SDS011;51820;48.374;10.930;2024-03-17T14:27:35;6.43;;;1.58;;
65234;SDS011;51820;48.374;10.930;2024-03-17T14:30:03;11.10;;;2.87;;
65234;SDS011;51820;48.374;10.930;2024-03-17T14:32:31;6.70;;;2.63;;
65234;SDS011;51820;48.374;10.930;2024-03-17T14:34:59;10.40;;;1.90;;
65234;SDS011;51820;48.374;10.930;2024-03-17T14:37:26;5.93;;;1.90;;
65234;SDS011;51820;48.374;10.930;2024-03-17T14:39:54;5.72;;;1.90;;
65234;SDS011;51820;48.374;10.930;2024-03-17T14:42:23;7.23;;;1.90;;
65234;SDS011;51820;48.374;10.930;2024-03-17T14:44:50;7.03;;;1.95;;
65234;SDS011;51820;48.374;10.930;2024-03-17T14:47:18;5.45;;;1.65;;